| time (UTC) | temp F | wind direction | speed MPH | gust MPH | rain 1hr in | rain 24hr in | rain mn in | humidity % | barometer mb |
| 20260506015742 | 65 | 89 | 1.0 | 2.0 | 0.00 | 0.00 | 0.00 | 69 | 1015.2 |
| 20260506015241 | 65 | 62 | 1.0 | 2.0 | 0.00 | 0.00 | 0.00 | 69 | 1015.2 |
| 20260506014741 | 65 | 13 | 1.0 | 3.0 | 0.00 | 0.00 | 0.00 | 68 | 1015.1 |
| 20260506014241 | 65 | 51 | 3.0 | 4.0 | 0.00 | 0.00 | 0.00 | 70 | 1015.1 |
| 20260506013741 | 65 | 57 | 3.0 | 5.0 | 0.00 | 0.00 | 0.00 | 69 | 1015.1 |
| 20260506013241 | 65 | 27 | 2.0 | 5.0 | 0.00 | 0.00 | 0.00 | 71 | 1015.1 |
| 20260506012743 | 64 | 7 | 3.0 | 6.0 | 0.00 | 0.00 | 0.00 | 70 | 1015.0 |
| 20260506012241 | 64 | 13 | 3.0 | 4.0 | 0.00 | 0.00 | 0.00 | 71 | 1015.1 |
| 20260506011743 | 65 | 17 | 4.0 | 5.0 | 0.00 | 0.00 | 0.00 | 72 | 1015.0 |
| 20260506011241 | 65 | 39 | 2.0 | 4.0 | 0.00 | 0.00 | 0.00 | 70 | 1015.1 |
| 20260506010741 | 64 | 19 | 3.0 | 5.0 | 0.00 | 0.00 | 0.00 | 73 | 1015.1 |
| 20260506010241 | 64 | 17 | 4.0 | 5.0 | 0.00 | 0.00 | 0.00 | 74 | 1015.0 |
| 20260506005741 | 65 | 355 | 4.0 | 6.0 | 0.00 | 0.00 | 0.00 | 70 | 1015.0 |
| 20260506005242 | 65 | 349 | 4.0 | 4.0 | 0.00 | 0.00 | 0.00 | 69 | 1015.1 |
| 20260506004743 | 65 | 58 | 2.0 | 3.0 | 0.00 | 0.00 | 0.00 | 66 | 1015.1 |
| 20260506004243 | 65 | 57 | 2.0 | 3.0 | 0.00 | 0.00 | 0.00 | 68 | 1015.1 |
| 20260506003743 | 65 | 75 | 2.0 | 4.0 | 0.00 | 0.00 | 0.00 | 69 | 1015.1 |
| 20260506003241 | 65 | 16 | 2.0 | 3.0 | 0.00 | 0.00 | 0.00 | 68 | 1015.1 |
| 20260506002744 | 65 | 36 | 4.0 | 5.0 | 0.00 | 0.00 | 0.00 | 69 | 1015.1 |
| 20260506002244 | 65 | 158 | 2.0 | 5.0 | 0.00 | 0.00 | 0.00 | 69 | 1015.1 |
| 20260506001743 | 64 | 124 | 1.0 | 3.0 | 0.00 | 0.00 | 0.00 | 71 | 1015.2 |
| 20260506001243 | 63 | 59 | 2.0 | 4.0 | 0.00 | 0.00 | 0.00 | 71 | 1015.2 |
| 20260506000741 | 63 | 8 | 4.0 | 6.0 | 0.00 | 0.00 | 0.00 | 73 | 1015.3 |
| 20260506000242 | 63 | 346 | 3.0 | 4.0 | 0.00 | 0.00 | 0.00 | 73 | 1015.3 |
| 20260505235741 | 63 | 50 | 4.0 | 5.0 | 0.00 | 0.00 | 0.00 | 73 | 1015.3 |
| 20260505235248 | 63 | 290 | 2.0 | 4.0 | 0.00 | 0.00 | 0.00 | 73 | 1015.4 |
| 20260505234741 | 63 | 27 | 2.0 | 4.0 | 0.00 | 0.00 | 0.00 | 74 | 1015.5 |
| 20260505234241 | 63 | 39 | 2.0 | 4.0 | 0.00 | 0.00 | 0.00 | 72 | 1015.6 |
| 20260505233743 | 62 | 336 | 1.0 | 2.0 | 0.00 | 0.00 | 0.00 | 73 | 1015.7 |
| 20260505233242 | 62 | 325 | 1.0 | 2.0 | 0.00 | 0.00 | 0.00 | 76 | 1015.7 |
| 20260505232742 | 61 | 325 | 1.0 | 2.0 | 0.00 | 0.00 | 0.00 | 78 | 1015.7 |
| 20260505232243 | 61 | 354 | 4.0 | 4.0 | 0.00 | 0.00 | 0.00 | 78 | 1015.8 |
| 20260505231743 | 61 | 356 | 4.0 | 6.0 | 0.00 | 0.00 | 0.00 | 78 | 1015.8 |
| 20260505231243 | 61 | 352 | 2.0 | 4.0 | 0.00 | 0.00 | 0.00 | 78 | 1015.8 |
| 20260505230741 | 61 | 354 | 4.0 | 5.0 | 0.00 | 0.00 | 0.00 | 79 | 1015.8 |
| 20260505230241 | 61 | 353 | 5.0 | 7.0 | 0.00 | 0.00 | 0.00 | 79 | 1015.9 |
| 20260505225741 | 61 | 0 | 4.0 | 6.0 | 0.00 | 0.00 | 0.00 | 78 | 1015.9 |
| 20260505225241 | 61 | 241 | 1.0 | 2.0 | 0.00 | 0.00 | 0.00 | 77 | 1015.9 |
| 20260505224742 | 61 | 230 | 1.0 | 2.0 | 0.00 | 0.00 | 0.00 | 75 | 1015.9 |
| 20260505224242 | 61 | 0 | 2.0 | 3.0 | 0.00 | 0.00 | 0.00 | 77 | 1015.9 |
| 20260505223741 | 61 | 1 | 3.0 | 4.0 | 0.00 | 0.00 | 0.00 | 77 | 1016.0 |
| 20260505223243 | 61 | 20 | 3.0 | 5.0 | 0.00 | 0.00 | 0.00 | 77 | 1015.9 |
| 20260505222741 | 61 | 12 | 2.0 | 4.0 | 0.00 | 0.00 | 0.00 | 78 | 1016.0 |
| 20260505222244 | 62 | 5 | 3.0 | 4.0 | 0.00 | 0.00 | 0.00 | 77 | 1016.0 |
| 20260505221742 | 62 | 14 | 2.0 | 5.0 | 0.00 | 0.00 | 0.00 | 76 | 1016.1 |
| 20260505221243 | 62 | 274 | 1.0 | 2.0 | 0.00 | 0.00 | 0.00 | 75 | 1016.1 |
| 20260505220742 | 62 | 317 | 1.0 | 3.0 | 0.00 | 0.00 | 0.00 | 74 | 1016.1 |
| 20260505220243 | 62 | 4 | 2.0 | 4.0 | 0.00 | 0.00 | 0.00 | 73 | 1016.1 |
| 20260505215742 | 62 | 25 | 2.0 | 4.0 | 0.00 | 0.00 | 0.00 | 75 | 1016.2 |
| 20260505215246 | 61 | 250 | 2.0 | 4.0 | 0.00 | 0.00 | 0.00 | 76 | 1016.2 |
| 20260505214744 | 62 | 7 | 2.0 | 5.0 | 0.00 | 0.00 | 0.00 | 76 | 1016.3 |
| 20260505214245 | 61 | 191 | 1.0 | 3.0 | 0.00 | 0.00 | 0.00 | 77 | 1016.3 |
| 20260505213741 | 62 | 250 | 2.0 | 3.0 | 0.00 | 0.00 | 0.00 | 75 | 1016.3 |
| 20260505213243 | 62 | 171 | 1.0 | 3.0 | 0.00 | 0.00 | 0.00 | 75 | 1016.3 |
| 20260505212742 | 61 | 201 | 2.0 | 4.0 | 0.00 | 0.00 | 0.00 | 75 | 1016.3 |
| 20260505212243 | 61 | 38 | 1.0 | 2.0 | 0.00 | 0.00 | 0.00 | 75 | 1016.3 |
| 20260505211743 | 61 | 69 | 1.0 | 1.0 | 0.00 | 0.00 | 0.00 | 75 | 1016.3 |
| 20260505211243 | 61 | 350 | 2.0 | 4.0 | 0.00 | 0.00 | 0.00 | 75 | 1016.3 |
| 20260505210743 | 61 | 15 | 4.0 | 6.0 | 0.00 | 0.00 | 0.00 | 76 | 1016.4 |
| 20260505210244 | 61 | 322 | 1.0 | 2.0 | 0.00 | 0.00 | 0.00 | 74 | 1016.4 |
| 20260505205744 | 61 | 318 | 2.0 | 4.0 | 0.00 | 0.00 | 0.00 | 74 | 1016.4 |
| 20260505205243 | 61 | 178 | 1.0 | 4.0 | 0.00 | 0.00 | 0.00 | 75 | 1016.4 |
| 20260505204741 | 60 | 11 | 3.0 | 4.0 | 0.00 | 0.00 | 0.00 | 76 | 1016.4 |
| 20260505204244 | 60 | 229 | 2.0 | 3.0 | 0.00 | 0.00 | 0.00 | 78 | 1016.3 |
| 20260505203743 | 60 | 24 | 4.0 | 5.0 | 0.00 | 0.00 | 0.00 | 78 | 1016.4 |
| 20260505203242 | 60 | 8 | 4.0 | 6.0 | 0.00 | 0.00 | 0.00 | 78 | 1016.4 |
| 20260505202742 | 60 | 103 | 0.0 | 3.0 | 0.00 | 0.00 | 0.00 | 79 | 1016.4 |
| 20260505202242 | 61 | 12 | 2.0 | 6.0 | 0.00 | 0.00 | 0.00 | 77 | 1016.5 |
| 20260505201744 | 61 | 83 | 2.0 | 3.0 | 0.00 | 0.00 | 0.00 | 76 | 1016.5 |
| 20260505201241 | 60 | 305 | 2.0 | 5.0 | 0.00 | 0.00 | 0.00 | 78 | 1016.6 |
| 20260505200742 | 60 | 22 | 1.0 | 4.0 | 0.00 | 0.00 | 0.00 | 75 | 1016.5 |
| 20260505200243 | 60 | 238 | 2.0 | 3.0 | 0.00 | 0.00 | 0.00 | 77 | 1016.5 |
| 20260505195744 | 60 | 31 | 1.0 | 3.0 | 0.00 | 0.00 | 0.00 | 77 | 1016.5 |
| 20260505195243 | 60 | 198 | 2.0 | 3.0 | 0.00 | 0.00 | 0.00 | 78 | 1016.6 |
| 20260505194745 | 60 | 17 | 4.0 | 6.0 | 0.00 | 0.00 | 0.00 | 77 | 1016.6 |
| 20260505194243 | 59 | 320 | 1.0 | 2.0 | 0.00 | 0.00 | 0.00 | 79 | 1016.6 |
| 20260505193742 | 59 | 280 | 1.0 | 2.0 | 0.00 | 0.00 | 0.00 | 80 | 1016.7 |
| 20260505193243 | 59 | 249 | 2.0 | 4.0 | 0.00 | 0.00 | 0.00 | 79 | 1016.7 |
| 20260505192741 | 59 | 260 | 1.0 | 4.0 | 0.00 | 0.00 | 0.00 | 80 | 1016.7 |
| 20260505192247 | 59 | 293 | 1.0 | 2.0 | 0.00 | 0.00 | 0.00 | 78 | 1016.7 |
| 20260505191743 | 59 | 8 | 1.0 | 3.0 | 0.00 | 0.00 | 0.00 | 78 | 1016.7 |
| 20260505191243 | 58 | 356 | 2.0 | 3.0 | 0.00 | 0.00 | 0.00 | 79 | 1016.7 |
| 20260505190742 | 58 | 27 | 3.0 | 6.0 | 0.00 | 0.00 | 0.00 | 79 | 1016.7 |
| 20260505190246 | 58 | 14 | 3.0 | 5.0 | 0.00 | 0.00 | 0.00 | 80 | 1016.7 |
| 20260505185743 | 58 | 7 | 3.0 | 4.0 | 0.00 | 0.00 | 0.00 | 79 | 1016.7 |
| 20260505185241 | 58 | 347 | 1.0 | 3.0 | 0.00 | 0.00 | 0.00 | 80 | 1016.7 |
| 20260505184743 | 58 | 14 | 0.0 | 2.0 | 0.00 | 0.00 | 0.00 | 79 | 1016.7 |
| 20260505184245 | 58 | 359 | 3.0 | 4.0 | 0.00 | 0.00 | 0.00 | 80 | 1016.6 |
| 20260505183746 | 58 | 0 | 3.0 | 4.0 | 0.00 | 0.00 | 0.00 | 81 | 1016.6 |
| 20260505183243 | 58 | 11 | 3.0 | 4.0 | 0.00 | 0.00 | 0.00 | 79 | 1016.6 |
| 20260505182743 | 58 | 14 | 2.0 | 3.0 | 0.00 | 0.00 | 0.00 | 79 | 1016.6 |
| 20260505182243 | 58 | 38 | 2.0 | 2.0 | 0.00 | 0.00 | 0.00 | 79 | 1016.6 |
| 20260505181742 | 58 | 49 | 1.0 | 3.0 | 0.00 | 0.00 | 0.00 | 79 | 1016.6 |
| 20260505181245 | 58 | 71 | 2.0 | 2.0 | 0.00 | 0.00 | 0.00 | 78 | 1016.5 |
| 20260505180742 | 58 | 3 | 1.0 | 2.0 | 0.00 | 0.00 | 0.00 | 80 | 1016.5 |
| 20260505180247 | 58 | 18 | 3.0 | 4.0 | 0.00 | 0.00 | 0.00 | 79 | 1016.5 |
| 20260505175743 | 58 | 24 | 0.0 | 2.0 | 0.00 | 0.00 | 0.00 | 79 | 1016.5 |
| 20260505175244 | 58 | 70 | 0.0 | 1.0 | 0.00 | 0.00 | 0.00 | 79 | 1016.5 |
| 20260505174744 | 58 | 58 | 1.0 | 2.0 | 0.00 | 0.00 | 0.00 | 79 | 1016.5 |
| 20260505174243 | 57 | 261 | 0.0 | 1.0 | 0.00 | 0.00 | 0.00 | 81 | 1016.5 |
| 20260505173750 | 57 | 12 | 2.0 | 2.0 | 0.00 | 0.00 | 0.00 | 82 | 1016.5 |
| 20260505173244 | 57 | 359 | 3.0 | 4.0 | 0.00 | 0.00 | 0.00 | 81 | 1016.4 |
| 20260505172744 | 57 | 72 | 1.0 | 2.0 | 0.00 | 0.00 | 0.00 | 80 | 1016.4 |
| 20260505172244 | 57 | 245 | 1.0 | 2.0 | 0.00 | 0.00 | 0.00 | 81 | 1016.4 |
| 20260505171744 | 57 | 36 | 2.0 | 3.0 | 0.00 | 0.00 | 0.00 | 82 | 1016.3 |
| 20260505171243 | 57 | 4 | 3.0 | 4.0 | 0.00 | 0.00 | 0.00 | 82 | 1016.3 |
| 20260505170743 | 57 | 9 | 2.0 | 3.0 | 0.00 | 0.00 | 0.00 | 83 | 1016.3 |
| 20260505170242 | 57 | 351 | 3.0 | 4.0 | 0.00 | 0.00 | 0.00 | 81 | 1016.3 |
| 20260505165746 | 57 | 25 | 1.0 | 2.0 | 0.00 | 0.00 | 0.00 | 82 | 1016.3 |
| 20260505165241 | 57 | 68 | 0.0 | 1.0 | 0.00 | 0.00 | 0.00 | 83 | 1016.3 |
| 20260505164747 | 57 | 42 | 1.0 | 2.0 | 0.00 | 0.00 | 0.00 | 82 | 1016.4 |
| 20260505164242 | 57 | 2 | 1.0 | 3.0 | 0.00 | 0.00 | 0.00 | 82 | 1016.4 |
| 20260505163742 | 57 | 148 | 0.0 | 1.0 | 0.00 | 0.00 | 0.00 | 82 | 1016.4 |
| 20260505163244 | 57 | 54 | 0.0 | 1.0 | 0.00 | 0.00 | 0.00 | 81 | 1016.4 |
| 20260505162744 | 56 | 193 | 0.0 | 2.0 | 0.00 | 0.00 | 0.00 | 83 | 1016.4 |
| 20260505162241 | 56 | 69 | 0.0 | 1.0 | 0.00 | 0.00 | 0.00 | 84 | 1016.4 |
| 20260505161741 | 56 | 90 | 0.0 | 2.0 | 0.00 | 0.00 | 0.00 | 84 | 1016.4 |
| 20260505161244 | 56 | 155 | 1.0 | 2.0 | 0.00 | 0.00 | 0.00 | 84 | 1016.3 |
| 20260505160745 | 56 | 141 | 1.0 | 2.0 | 0.00 | 0.00 | 0.00 | 85 | 1016.3 |
| 20260505160244 | 56 | 164 | 1.0 | 2.0 | 0.00 | 0.00 | 0.00 | 85 | 1016.3 |
| 20260505153242 | 55 | 267 | 1.0 | 2.0 | 0.00 | 0.00 | 0.00 | 87 | 1016.4 |
| 20260505152743 | 55 | 167 | 1.0 | 2.0 | 0.00 | 0.00 | 0.00 | 86 | 1016.4 |
| 20260505152243 | 55 | 188 | 1.0 | 2.0 | 0.00 | 0.00 | 0.00 | 87 | 1016.4 |
| 20260505151743 | 55 | 254 | 1.0 | 2.0 | 0.00 | 0.00 | 0.00 | 87 | 1016.4 |
| 20260505151242 | 54 | 124 | 1.0 | 2.0 | 0.00 | 0.00 | 0.00 | 88 | 1016.3 |
| 20260505150745 | 54 | 144 | 2.0 | 3.0 | 0.00 | 0.00 | 0.00 | 88 | 1016.3 |
| 20260505150242 | 54 | 154 | 0.0 | 1.0 | 0.00 | 0.00 | 0.00 | 88 | 1016.3 |
| 20260505140245 | 53 | 172 | 1.0 | 2.0 | 0.00 | 0.00 | 0.00 | 90 | 1015.9 |
| 20260505130243 | 53 | 130 | 1.0 | 2.0 | 0.00 | 0.00 | 0.00 | 90 | 1015.6 |
| 20260505124743 | 53 | 221 | 0.0 | 2.0 | 0.00 | 0.00 | 0.00 | 90 | 1015.4 |
| 20260505124244 | 53 | 173 | 3.0 | 4.0 | 0.00 | 0.00 | 0.00 | 90 | 1015.4 |
| 20260505123742 | 53 | 182 | 1.0 | 3.0 | 0.00 | 0.00 | 0.00 | 90 | 1015.3 |
| 20260505123245 | 53 | 195 | 1.0 | 2.0 | 0.00 | 0.00 | 0.00 | 90 | 1015.3 |
| 20260505122744 | 53 | 198 | 0.0 | 1.0 | 0.00 | 0.00 | 0.00 | 90 | 1015.3 |
| 20260505122242 | 53 | 211 | 0.0 | 1.0 | 0.00 | 0.00 | 0.00 | 91 | 1015.3 |
| 20260505121744 | 53 | 146 | 2.0 | 3.0 | 0.00 | 0.00 | 0.00 | 91 | 1015.3 |
| 20260505121242 | 53 | 153 | 3.0 | 4.0 | 0.00 | 0.00 | 0.00 | 91 | 1015.3 |
| 20260505120743 | 53 | 121 | 1.0 | 1.0 | 0.00 | 0.00 | 0.00 | 91 | 1015.2 |
| 20260505120244 | 53 | 158 | 2.0 | 3.0 | 0.00 | 0.00 | 0.00 | 91 | 1015.2 |
| 20260505115743 | 53 | 169 | 1.0 | 2.0 | 0.00 | 0.00 | 0.00 | 91 | 1015.2 |
| 20260505115243 | 53 | 160 | 3.0 | 5.0 | 0.00 | 0.00 | 0.00 | 91 | 1015.2 |
| 20260505114743 | 53 | 148 | 2.0 | 4.0 | 0.00 | 0.00 | 0.00 | 91 | 1015.2 |
| 20260505114245 | 53 | 156 | 2.0 | 4.0 | 0.00 | 0.00 | 0.00 | 91 | 1015.2 |
| 20260505113744 | 53 | 167 | 2.0 | 4.0 | 0.00 | 0.00 | 0.00 | 90 | 1015.1 |
| 20260505113241 | 54 | 163 | 4.0 | 6.0 | 0.00 | 0.00 | 0.00 | 90 | 1015.2 |
| 20260505112743 | 54 | 157 | 4.0 | 8.0 | 0.00 | 0.00 | 0.00 | 89 | 1015.2 |
| 20260505112242 | 54 | 166 | 4.0 | 6.0 | 0.00 | 0.00 | 0.00 | 89 | 1015.2 |
| 20260505111741 | 54 | 164 | 4.0 | 5.0 | 0.00 | 0.00 | 0.00 | 89 | 1015.2 |
| 20260505111242 | 54 | 187 | 1.0 | 3.0 | 0.00 | 0.00 | 0.00 | 88 | 1015.2 |
| 20260505110742 | 54 | 256 | 4.0 | 7.0 | 0.00 | 0.00 | 0.00 | 88 | 1015.1 |
| 20260505110242 | 54 | 148 | 3.0 | 4.0 | 0.00 | 0.00 | 0.00 | 89 | 1015.1 |
| 20260505101743 | 54 | 154 | 2.0 | 2.0 | 0.00 | 0.00 | 0.00 | 87 | 1015.0 |
| 20260505101243 | 54 | 333 | 3.0 | 5.0 | 0.00 | 0.00 | 0.00 | 87 | 1014.9 |
| 20260505100743 | 54 | 242 | 4.0 | 6.0 | 0.00 | 0.00 | 0.00 | 87 | 1014.9 |
| 20260505100243 | 54 | 243 | 3.0 | 5.0 | 0.00 | 0.00 | 0.00 | 88 | 1014.8 |
| 20260505095741 | 54 | 171 | 6.0 | 9.0 | 0.00 | 0.00 | 0.00 | 88 | 1014.8 |
| 20260505095244 | 54 | 162 | 4.0 | 5.0 | 0.00 | 0.00 | 0.00 | 88 | 1014.8 |
| 20260505094741 | 54 | 169 | 3.0 | 4.0 | 0.00 | 0.00 | 0.00 | 88 | 1014.8 |
| 20260505094243 | 54 | 172 | 2.0 | 2.0 | 0.00 | 0.00 | 0.00 | 88 | 1014.7 |
| 20260505093744 | 54 | 162 | 3.0 | 5.0 | 0.00 | 0.00 | 0.00 | 87 | 1014.7 |
| 20260505093241 | 54 | 175 | 5.0 | 7.0 | 0.00 | 0.00 | 0.00 | 87 | 1014.6 |
| 20260505092743 | 54 | 243 | 2.0 | 4.0 | 0.00 | 0.00 | 0.00 | 87 | 1014.7 |
| 20260505092245 | 54 | 164 | 5.0 | 8.0 | 0.00 | 0.00 | 0.00 | 87 | 1014.6 |
| 20260505091742 | 54 | 164 | 3.0 | 4.0 | 0.00 | 0.00 | 0.00 | 88 | 1014.6 |
| 20260505091243 | 54 | 177 | 3.0 | 4.0 | 0.00 | 0.00 | 0.00 | 87 | 1014.6 |
| 20260505090743 | 54 | 186 | 2.0 | 3.0 | 0.00 | 0.00 | 0.00 | 88 | 1014.6 |
| 20260505090241 | 54 | 174 | 2.0 | 5.0 | 0.00 | 0.00 | 0.00 | 88 | 1014.6 |
| 20260505085743 | 54 | 150 | 3.0 | 4.0 | 0.00 | 0.00 | 0.00 | 87 | 1014.6 |
| 20260505085245 | 54 | 170 | 1.0 | 2.0 | 0.00 | 0.00 | 0.00 | 86 | 1014.6 |
| 20260505084743 | 54 | 167 | 2.0 | 3.0 | 0.00 | 0.00 | 0.00 | 87 | 1014.6 |
| 20260505084242 | 54 | 139 | 4.0 | 7.0 | 0.00 | 0.00 | 0.00 | 87 | 1014.6 |
| 20260505083747 | 54 | 115 | 1.0 | 2.0 | 0.00 | 0.00 | 0.00 | 87 | 1014.6 |
| 20260505083243 | 54 | 148 | 5.0 | 6.0 | 0.00 | 0.00 | 0.00 | 87 | 1014.6 |
| 20260505082741 | 55 | 141 | 5.0 | 7.0 | 0.00 | 0.00 | 0.00 | 87 | 1014.6 |
| 20260505082243 | 55 | 11 | 5.0 | 7.0 | 0.00 | 0.00 | 0.00 | 86 | 1014.6 |
| 20260505081742 | 55 | 142 | 4.0 | 6.0 | 0.00 | 0.00 | 0.00 | 86 | 1014.5 |
| 20260505081242 | 55 | 7 | 2.0 | 4.0 | 0.00 | 0.00 | 0.00 | 87 | 1014.5 |
| 20260505080742 | 55 | 125 | 2.0 | 4.0 | 0.00 | 0.00 | 0.00 | 86 | 1014.5 |
| 20260505080242 | 55 | 105 | 3.0 | 4.0 | 0.00 | 0.00 | 0.00 | 86 | 1014.4 |
| 20260505075742 | 55 | 26 | 1.0 | 2.0 | 0.00 | 0.00 | 0.00 | 86 | 1014.4 |
| 20260505075241 | 55 | 51 | 3.0 | 4.0 | 0.00 | 0.00 | 0.00 | 87 | 1014.4 |
| 20260505074744 | 55 | 71 | 3.0 | 4.0 | 0.00 | 0.00 | 0.00 | 86 | 1014.3 |
| 20260505074243 | 55 | 284 | 1.0 | 2.0 | 0.00 | 0.00 | 0.00 | 86 | 1014.3 |
| 20260505073741 | 55 | 171 | 7.0 | 11.0 | 0.00 | 0.00 | 0.00 | 86 | 1014.4 |
| 20260505073241 | 55 | 189 | 4.0 | 5.0 | 0.00 | 0.00 | 0.00 | 86 | 1014.3 |
| 20260505072741 | 55 | 10 | 6.0 | 10.0 | 0.00 | 0.00 | 0.00 | 86 | 1014.3 |
| 20260505072242 | 55 | 30 | 3.0 | 5.0 | 0.00 | 0.00 | 0.00 | 86 | 1014.3 |
| 20260505071741 | 55 | 179 | 2.0 | 3.0 | 0.00 | 0.00 | 0.00 | 86 | 1014.3 |
| 20260505071241 | 55 | 122 | 4.0 | 6.0 | 0.00 | 0.00 | 0.00 | 86 | 1014.3 |
| 20260505070742 | 54 | 49 | 1.0 | 3.0 | 0.00 | 0.00 | 0.00 | 87 | 1014.3 |
| 20260505070242 | 55 | 22 | 6.0 | 8.0 | 0.00 | 0.00 | 0.00 | 87 | 1014.2 |
| 20260505065741 | 55 | 324 | 2.0 | 3.0 | 0.00 | 0.00 | 0.00 | 87 | 1014.2 |
| 20260505065241 | 55 | 247 | 2.0 | 3.0 | 0.00 | 0.00 | 0.00 | 87 | 1014.3 |
| 20260505064741 | 55 | 323 | 2.0 | 4.0 | 0.00 | 0.00 | 0.00 | 86 | 1014.2 |
| 20260505064241 | 55 | 194 | 3.0 | 4.0 | 0.00 | 0.00 | 0.00 | 86 | 1014.2 |
| 20260505063741 | 55 | 203 | 1.0 | 2.0 | 0.00 | 0.00 | 0.00 | 86 | 1014.2 |
| 20260505063242 | 55 | 245 | 2.0 | 6.0 | 0.00 | 0.00 | 0.00 | 86 | 1014.2 |
| 20260505062741 | 55 | 355 | 3.0 | 6.0 | 0.00 | 0.00 | 0.00 | 86 | 1014.2 |
| 20260505062241 | 55 | 176 | 4.0 | 6.0 | 0.00 | 0.00 | 0.00 | 86 | 1014.2 |
| 20260505061742 | 55 | 188 | 2.0 | 5.0 | 0.00 | 0.00 | 0.00 | 86 | 1014.2 |
| 20260505061242 | 55 | 249 | 4.0 | 6.0 | 0.00 | 0.00 | 0.00 | 86 | 1014.2 |
| 20260505060742 | 55 | 186 | 2.0 | 4.0 | 0.00 | 0.00 | 0.00 | 86 | 1014.2 |
| 20260505060241 | 55 | 253 | 2.0 | 4.0 | 0.00 | 0.00 | 0.00 | 86 | 1014.3 |
| 20260505055741 | 55 | 140 | 0.0 | 1.0 | 0.00 | 0.00 | 0.00 | 86 | 1014.3 |
| 20260505055242 | 55 | 154 | 4.0 | 5.0 | 0.00 | 0.00 | 0.00 | 86 | 1014.2 |
| 20260505054741 | 55 | 170 | 6.0 | 9.0 | 0.00 | 0.00 | 0.00 | 87 | 1014.1 |
| 20260505054241 | 55 | 165 | 5.0 | 7.0 | 0.00 | 0.00 | 0.00 | 87 | 1014.2 |
| 20260505053742 | 55 | 131 | 2.0 | 3.0 | 0.00 | 0.00 | 0.00 | 86 | 1014.1 |
| 20260505053241 | 55 | 133 | 2.0 | 3.0 | 0.00 | 0.00 | 0.00 | 87 | 1014.1 |
| 20260505052741 | 55 | 80 | 2.0 | 2.0 | 0.00 | 0.00 | 0.00 | 87 | 1014.1 |
| 20260505052242 | 55 | 259 | 0.0 | 1.0 | 0.00 | 0.00 | 0.00 | 87 | 1014.1 |
| 20260505051741 | 55 | 220 | 0.0 | 1.0 | 0.00 | 0.00 | 0.00 | 87 | 1014.1 |
| 20260505051241 | 55 | 253 | 2.0 | 4.0 | 0.00 | 0.00 | 0.00 | 86 | 1014.0 |
| 20260505050741 | 56 | 204 | 1.0 | 3.0 | 0.00 | 0.00 | 0.00 | 86 | 1014.0 |
| 20260505050241 | 56 | 39 | 3.0 | 5.0 | 0.00 | 0.00 | 0.00 | 86 | 1013.9 |
| 20260505041741 | 57 | 342 | 4.0 | 7.0 | 0.00 | 0.00 | 0.00 | 84 | 1013.3 |
| 20260505041241 | 57 | 264 | 2.0 | 4.0 | 0.00 | 0.00 | 0.00 | 84 | 1013.3 |
| 20260505040741 | 57 | 205 | 2.0 | 4.0 | 0.00 | 0.00 | 0.00 | 83 | 1013.2 |
| 20260505040243 | 58 | 258 | 4.0 | 8.0 | 0.00 | 0.00 | 0.00 | 83 | 1013.2 |
| 20260505035742 | 58 | 176 | 0.0 | 2.0 | 0.00 | 0.00 | 0.00 | 83 | 1013.1 |
| 20260505035241 | 58 | 208 | 2.0 | 3.0 | 0.00 | 0.00 | 0.00 | 82 | 1013.1 |
| 20260505034742 | 59 | 237 | 3.0 | 7.0 | 0.00 | 0.00 | 0.00 | 82 | 1013.0 |
| 20260505034242 | 59 | 223 | 3.0 | 6.0 | 0.00 | 0.00 | 0.00 | 82 | 1012.9 |
| 20260505033743 | 59 | 263 | 3.0 | 4.0 | 0.00 | 0.00 | 0.00 | 82 | 1012.6 |
| 20260505033242 | 59 | 303 | 2.0 | 5.0 | 0.00 | 0.00 | 0.00 | 81 | 1012.5 |
| 20260505032741 | 60 | 246 | 4.0 | 8.0 | 0.00 | 0.00 | 0.00 | 81 | 1012.5 |
| 20260505032242 | 60 | 252 | 2.0 | 4.0 | 0.00 | 0.00 | 0.00 | 80 | 1012.3 |
| 20260505031741 | 60 | 230 | 2.0 | 6.0 | 0.00 | 0.00 | 0.00 | 80 | 1012.2 |
| 20260505031241 | 60 | 246 | 3.0 | 4.0 | 0.00 | 0.00 | 0.00 | 81 | 1012.1 |
| 20260505030742 | 60 | 252 | 5.0 | 9.0 | 0.00 | 0.00 | 0.00 | 81 | 1012.0 |
| 20260505030242 | 61 | 251 | 4.0 | 7.0 | 0.00 | 0.00 | 0.00 | 81 | 1011.9 |
| 20260505025741 | 61 | 248 | 4.0 | 8.0 | 0.00 | 0.00 | 0.00 | 82 | 1011.9 |
| 20260505025244 | 61 | 252 | 2.0 | 4.0 | 0.00 | 0.00 | 0.00 | 82 | 1011.8 |
| 20260505024742 | 62 | 245 | 2.0 | 5.0 | 0.00 | 0.00 | 0.00 | 81 | 1011.8 |
| 20260505024241 | 62 | 244 | 1.0 | 3.0 | 0.00 | 0.00 | 0.00 | 80 | 1011.7 |
| 20260505023743 | 63 | 241 | 3.0 | 4.0 | 0.00 | 0.00 | 0.00 | 79 | 1011.6 |
| 20260505023241 | 64 | 257 | 5.0 | 7.0 | 0.00 | 0.00 | 0.00 | 78 | 1011.6 |
| 20260505022741 | 64 | 226 | 2.0 | 4.0 | 0.00 | 0.00 | 0.00 | 77 | 1011.6 |
| 20260505022241 | 65 | 256 | 2.0 | 4.0 | 0.00 | 0.00 | 0.00 | 76 | 1011.5 |
| 20260505021742 | 65 | 273 | 4.0 | 7.0 | 0.00 | 0.00 | 0.00 | 74 | 1011.5 |
| 20260505021242 | 65 | 189 | 1.0 | 3.0 | 0.00 | 0.00 | 0.00 | 74 | 1011.4 |
| 20260505020741 | 66 | 173 | 3.0 | 5.0 | 0.00 | 0.00 | 0.00 | 73 | 1011.4 |
| 20260505020241 | 67 | 244 | 3.0 | 8.0 | 0.00 | 0.00 | 0.00 | 73 | 1011.4 |